Time;durP1;ratioP1;P1;durP2;ratioP2;P2;SDS_P1;SDS_P2;PMS_P1;PMS_P2;Temp;Humidity;BMP_temperature;BMP_pressure;BME280_temperature;BME280_humidity;BME280_pressure;Samples;Min_cycle;Max_cycle;Signal;HPM_P1;HPM_P2
2022/12/26 00:01:06;;;;;;;4.93;3.63;;;10.90;99.90;;;;;;4914961;29;20439;-70
2022/12/26 00:03:32;;;;;;;5.60;4.20;;;10.90;99.90;;;;;;4898237;28;20467;-70
2022/12/26 00:05:58;;;;;;;5.27;3.70;;;10.90;99.90;;;;;;4913744;28;20421;-70
2022/12/26 00:08:27;;;;;;;6.50;4.30;;;10.90;99.90;;;;;;4882902;29;20472;-70
2022/12/26 00:10:57;;;;;;;4.47;3.60;;;10.90;99.90;;;;;;4913545;29;20456;-70
2022/12/26 00:13:23;;;;;;;6.20;3.97;;;10.90;99.90;;;;;;4914436;28;20453;-70
2022/12/26 00:15:52;;;;;;;4.20;3.80;;;10.90;99.90;;;;;;4913613;29;20424;-71
2022/12/26 00:18:19;;;;;;;4.93;3.93;;;10.90;99.90;;;;;;4913596;29;20431;-70
2022/12/26 00:20:48;;;;;;;5.37;3.67;;;10.90;99.90;;;;;;4897471;28;20448;-71
2022/12/26 00:23:14;;;;;;;4.53;3.87;;;10.90;99.90;;;;;;4913757;29;20441;-70
2022/12/26 00:25:40;;;;;;;5.83;4.13;;;10.90;99.90;;;;;;4944407;28;20532;-70
2022/12/26 00:28:09;;;;;;;4.23;3.80;;;10.90;99.90;;;;;;4897417;28;20454;-71
2022/12/26 00:30:37;;;;;;;4.20;3.70;;;10.90;99.90;;;;;;4897541;28;20467;-70
2022/12/26 00:33:02;;;;;;;5.07;4.00;;;10.90;99.90;;;;;;4913867;28;20807;-70
2022/12/26 00:35:29;;;;;;;4.57;3.80;;;10.90;99.90;;;;;;4914254;29;20525;-70
2022/12/26 00:37:59;;;;;;;4.20;3.67;;;10.90;99.90;;;;;;4882431;29;20418;-70
2022/12/26 00:40:25;;;;;;;3.67;3.30;;;10.90;99.90;;;;;;4897247;29;20793;-71
2022/12/26 00:42:51;;;;;;;5.73;4.27;;;10.90;99.90;;;;;;4913395;29;20441;-70
2022/12/26 00:45:19;;;;;;;5.50;4.10;;;10.90;99.90;;;;;;4913129;28;20789;-71
2022/12/26 00:47:50;;;;;;;6.00;3.90;;;10.90;99.90;;;;;;4912818;28;20652;-70
2022/12/26 00:50:16;;;;;;;3.93;3.60;;;10.90;99.90;;;;;;4914013;29;20461;-70
2022/12/26 00:52:42;;;;;;;4.93;3.87;;;10.90;99.90;;;;;;4914152;29;20457;-71
2022/12/26 00:55:11;;;;;;;4.17;3.43;;;10.90;99.90;;;;;;4913023;29;20929;-70
2022/12/26 00:57:39;;;;;;;5.83;4.30;;;10.90;99.90;;;;;;4921068;29;20458;-70
2022/12/26 01:00:06;;;;;;;5.67;4.53;;;10.90;99.90;;;;;;4933299;28;20420;-71
2022/12/26 01:02:37;;;;;;;6.83;4.47;;;10.90;99.90;;;;;;4914377;29;20465;-71
2022/12/26 01:05:08;;;;;;;4.80;3.80;;;10.90;99.90;;;;;;4909670;28;20437;-71
2022/12/26 01:07:35;;;;;;;5.73;4.20;;;10.90;99.90;;;;;;4912752;29;20425;-70
2022/12/26 01:10:05;;;;;;;4.57;4.10;;;10.90;99.90;;;;;;4912973;28;20527;-70
2022/12/26 01:12:34;;;;;;;4.97;3.93;;;10.90;99.90;;;;;;4912551;29;20448;-71
2022/12/26 01:15:00;;;;;;;4.47;4.07;;;10.90;99.90;;;;;;4896710;28;20433;-70
2022/12/26 01:17:27;;;;;;;5.43;4.47;;;10.90;99.90;;;;;;4913365;28;20425;-70
2022/12/26 01:19:56;;;;;;;5.03;4.53;;;10.90;99.90;;;;;;4914022;29;20409;-70
2022/12/26 01:22:22;;;;;;;4.30;3.90;;;10.90;99.90;;;;;;4898142;29;20523;-70
2022/12/26 01:24:57;;;;;;;4.80;3.63;;;11.00;99.90;;;;;;4913838;29;20437;-70
2022/12/26 01:27:25;;;;;;;4.20;3.60;;;10.90;99.90;;;;;;4911548;28;21005;-70
2022/12/26 01:29:55;;;;;;;5.77;4.30;;;11.00;99.90;;;;;;4913688;29;20521;-70
2022/12/26 01:32:22;;;;;;;6.03;4.30;;;10.90;99.90;;;;;;4896864;29;20449;-70
2022/12/26 01:34:48;;;;;;;5.73;3.80;;;11.00;99.90;;;;;;4878545;28;20422;-70
2022/12/26 01:37:15;;;;;;;5.87;4.30;;;10.90;99.90;;;;;;4908551;29;20612;-71
2022/12/26 01:39:45;;;;;;;5.33;4.30;;;11.00;99.90;;;;;;4913701;29;20426;-70
2022/12/26 01:42:16;;;;;;;6.27;4.57;;;11.00;99.90;;;;;;4896816;28;20990;-71
2022/12/26 01:44:58;;;;;;;4.53;3.50;;;11.00;99.90;;;;;;4913507;29;20429;-70
2022/12/26 01:47:35;;;;;;;5.63;3.93;;;10.90;99.90;;;;;;4896741;28;20488;-70
2022/12/26 01:50:03;;;;;;;5.77;3.60;;;11.00;99.90;;;;;;4912014;28;20480;-70
2022/12/26 01:52:36;;;;;;;4.00;3.63;;;10.90;99.90;;;;;;4913485;29;20858;-71
2022/12/26 01:55:06;;;;;;;4.50;3.80;;;10.90;99.90;;;;;;4912263;29;20958;-70
2022/12/26 01:57:45;;;;;;;4.30;3.43;;;10.90;99.90;;;;;;4930433;28;20442;-70
2022/12/26 02:00:11;;;;;;;3.70;3.23;;;10.90;99.90;;;;;;4894342;29;20418;-70
2022/12/26 02:05:32;;;;;;;9.70;3.40;;;11.00;99.90;;;;;;4911416;28;20973;-70
2022/12/26 02:08:07;;;;;;;5.10;3.67;;;11.00;99.90;;;;;;4912533;29;20424;-70
2022/12/26 02:10:45;;;;;;;3.30;2.60;;;11.00;99.90;;;;;;4912641;29;20487;-70
2022/12/26 02:13:12;;;;;;;5.40;3.97;;;11.00;99.90;;;;;;4926508;28;20562;-70
2022/12/26 02:15:40;;;;;;;3.20;2.80;;;11.00;99.90;;;;;;4912128;29;21019;-70
2022/12/26 02:18:09;;;;;;;4.97;3.30;;;11.00;99.90;;;;;;4912069;29;20437;-70
2022/12/26 02:20:42;;;;;;;6.13;3.60;;;11.00;99.90;;;;;;4927102;29;20838;-69
2022/12/26 02:23:23;;;;;;;4.00;3.37;;;11.00;99.90;;;;;;4901203;28;20479;-70
2022/12/26 02:26:01;;;;;;;3.87;3.47;;;11.00;99.90;;;;;;4911178;28;20544;-70
2022/12/26 02:28:34;;;;;;;2.90;2.47;;;11.00;99.90;;;;;;4912897;29;20425;-70
2022/12/26 02:31:38;;;;;;;3.80;3.40;;;11.00;99.90;;;;;;4911257;29;20974;-70
2022/12/26 02:34:15;;;;;;;3.43;2.83;;;11.00;99.90;;;;;;4896152;29;20966;-70
2022/12/26 02:36:49;;;;;;;4.00;3.27;;;11.00;99.90;;;;;;4895074;29;20969;-70
2022/12/26 02:39:33;;;;;;;4.57;2.97;;;11.00;99.90;;;;;;4911367;28;20798;-70
2022/12/26 02:42:27;;;;;;;2.80;2.50;;;11.00;99.90;;;;;;4911947;29;20483;-70
2022/12/26 02:48:05;;;;;;;5.20;3.63;;;11.00;99.90;;;;;;4912522;29;20491;-70
2022/12/26 03:14:39;;;;;;;4.50;3.03;;;11.00;99.90;;;;;;4894946;28;20461;-70
2022/12/26 03:17:19;;;;;;;4.40;3.50;;;11.00;99.90;;;;;;4900879;28;20448;-70
2022/12/26 03:20:03;;;;;;;5.33;3.20;;;11.00;99.90;;;;;;4880210;28;20548;-70
2022/12/26 03:22:33;;;;;;;4.20;3.60;;;11.00;99.90;;;;;;4914742;28;20440;-70
2022/12/26 03:27:57;;;;;;;4.20;3.80;;;11.00;99.90;;;;;;4915469;29;20492;-70
2022/12/26 03:35:53;;;;;;;4.07;3.23;;;11.00;99.90;;;;;;4896892;28;20919;-70
2022/12/26 03:38:50;;;;;;;3.70;3.07;;;11.00;99.90;;;;;;4909298;28;20470;-70
2022/12/26 04:19:41;;;;;;;4.23;3.80;;;10.90;99.90;;;;;;4913955;29;20441;-70
2022/12/26 04:45:16;;;;;;;4.73;4.23;;;10.90;99.90;;;;;;4912580;28;20437;-70
2022/12/26 04:50:10;;;;;;;4.00;3.60;;;10.90;99.90;;;;;;4947059;28;20470;-70
2022/12/26 04:50:31;;;;;;;5.77;4.80;;;11.00;99.90;;;;;;4924717;28;21139;-70
2022/12/26 04:52:59;;;;;;;4.63;4.07;;;10.90;99.90;;;;;;4926935;29;20454;-70
2022/12/26 04:55:40;;;;;;;4.63;4.20;;;10.90;99.90;;;;;;4914272;29;20508;-70
2022/12/26 04:58:06;;;;;;;4.60;4.20;;;10.90;99.90;;;;;;4913024;28;20475;-70
2022/12/26 05:00:35;;;;;;;5.93;5.00;;;11.00;99.90;;;;;;4927303;28;20469;-70
2022/12/26 05:11:26;;;;;;;4.17;3.57;;;10.90;99.90;;;;;;4914331;29;20406;-70
2022/12/26 05:13:56;;;;;;;4.30;3.90;;;10.90;99.90;;;;;;4913225;28;20861;-70
2022/12/26 05:30:29;;;;;;;3.93;3.53;;;10.90;99.90;;;;;;4909668;29;20991;-70
2022/12/26 05:35:46;;;;;;;4.47;3.80;;;10.90;99.90;;;;;;4914146;28;21350;-70
2022/12/26 05:38:16;;;;;;;3.73;3.40;;;10.90;99.90;;;;;;4912749;29;20452;-70
2022/12/26 05:40:42;;;;;;;3.93;3.30;;;10.90;99.90;;;;;;4912713;28;20445;-69
2022/12/26 05:43:08;;;;;;;3.77;3.37;;;10.90;99.90;;;;;;4912861;29;20865;-70
2022/12/26 05:45:34;;;;;;;3.97;3.60;;;10.90;99.90;;;;;;4912392;29;20487;-70
2022/12/26 05:48:04;;;;;;;3.53;3.23;;;10.90;99.90;;;;;;4913653;29;20423;-70
2022/12/26 05:50:32;;;;;;;4.30;3.70;;;10.90;99.90;;;;;;4895059;29;20200;-70
2022/12/26 05:53:08;;;;;;;3.73;3.30;;;10.90;99.90;;;;;;4910930;29;20954;-69
2022/12/26 05:55:39;;;;;;;4.10;3.43;;;10.90;99.90;;;;;;4904288;28;20794;-70
2022/12/26 05:58:05;;;;;;;3.60;3.27;;;10.90;99.90;;;;;;4897124;28;20521;-70
2022/12/26 06:00:33;;;;;;;3.80;3.40;;;10.90;99.90;;;;;;4943708;29;20515;-70
2022/12/26 06:03:02;;;;;;;3.60;3.20;;;10.90;99.90;;;;;;4913120;28;20461;-70
2022/12/26 06:05:30;;;;;;;4.53;3.80;;;10.90;99.90;;;;;;4913336;28;20468;-70
2022/12/26 06:08:01;;;;;;;3.80;3.40;;;10.90;99.90;;;;;;4913826;29;20439;-69
2022/12/26 06:10:32;;;;;;;5.83;3.37;;;10.90;99.90;;;;;;4880325;28;20497;-70
2022/12/26 06:12:59;;;;;;;4.60;4.17;;;10.90;99.90;;;;;;4912262;28;20473;-70
2022/12/26 06:15:25;;;;;;;3.20;2.90;;;10.90;99.90;;;;;;4912320;29;20398;-70
2022/12/26 06:18:17;;;;;;;4.43;3.60;;;10.90;99.90;;;;;;4884248;29;20453;-70
2022/12/26 06:20:45;;;;;;;3.63;3.17;;;10.90;99.90;;;;;;4912164;28;20436;-70
2022/12/26 06:23:11;;;;;;;3.93;3.53;;;10.90;99.90;;;;;;4913092;29;20529;-70
2022/12/26 06:25:37;;;;;;;3.37;3.07;;;10.90;99.90;;;;;;4935275;29;20543;-70
2022/12/26 06:28:06;;;;;;;3.50;3.20;;;10.90;99.90;;;;;;4912880;28;20436;-70
2022/12/26 06:30:34;;;;;;;3.60;3.30;;;10.90;99.90;;;;;;4913218;29;20852;-70
2022/12/26 06:33:00;;;;;;;3.40;3.10;;;10.90;99.90;;;;;;4912119;28;20503;-69
2022/12/26 06:35:29;;;;;;;3.37;2.83;;;10.90;99.90;;;;;;4943456;29;20532;-70
2022/12/26 06:37:55;;;;;;;3.80;3.50;;;10.90;99.90;;;;;;4896073;28;20540;-70
2022/12/26 06:40:21;;;;;;;3.60;3.10;;;10.90;99.90;;;;;;4913049;28;20452;-69
2022/12/26 06:42:46;;;;;;;3.30;3.00;;;10.90;99.90;;;;;;4911752;29;20450;-69
2022/12/26 06:45:13;;;;;;;3.67;3.27;;;10.90;99.90;;;;;;4951082;22;20596;-73
2022/12/26 06:47:41;;;;;;;3.10;2.80;;;10.90;99.90;;;;;;4996249;28;20522;-74
2022/12/26 06:50:07;;;;;;;4.43;3.20;;;10.90;99.90;;;;;;5013556;28;20449;-74
2022/12/26 06:52:33;;;;;;;3.63;3.33;;;10.90;99.90;;;;;;5012282;28;20440;-73
2022/12/26 06:54:59;;;;;;;3.40;2.77;;;10.90;99.90;;;;;;5013646;28;20423;-73
2022/12/26 06:57:27;;;;;;;3.57;3.27;;;10.90;99.90;;;;;;5013611;28;20776;-73
2022/12/26 06:59:53;;;;;;;3.13;2.83;;;10.90;99.90;;;;;;4996048;28;20509;-73
2022/12/26 07:02:19;;;;;;;3.30;3.00;;;10.90;99.90;;;;;;4996137;28;20463;-74
2022/12/26 07:04:45;;;;;;;4.00;3.40;;;10.90;99.90;;;;;;4996169;28;20397;-73
2022/12/26 07:07:13;;;;;;;3.50;2.87;;;10.90;99.90;;;;;;5012263;28;20475;-74
2022/12/26 07:09:42;;;;;;;2.83;2.63;;;10.90;99.90;;;;;;5012942;28;20499;-74
2022/12/26 07:12:10;;;;;;;3.90;3.50;;;10.80;99.90;;;;;;5012205;28;20479;-73
2022/12/26 07:14:36;;;;;;;3.27;2.97;;;10.90;99.90;;;;;;4996006;28;20417;-74
2022/12/26 07:17:02;;;;;;;2.77;2.57;;;10.80;99.90;;;;;;4995910;28;20479;-74
2022/12/26 07:19:33;;;;;;;3.13;2.83;;;10.90;99.90;;;;;;5013420;28;20455;-74
2022/12/26 07:22:01;;;;;;;3.87;3.47;;;10.80;99.90;;;;;;5012302;28;20773;-75
2022/12/26 07:24:36;;;;;;;3.40;3.10;;;10.80;99.90;;;;;;5013261;28;20963;-75
2022/12/26 07:27:02;;;;;;;3.43;3.10;;;10.90;99.90;;;;;;5012725;28;20393;-74
2022/12/26 07:29:28;;;;;;;3.83;3.43;;;10.90;99.90;;;;;;5012110;28;20991;-74
2022/12/26 07:31:59;;;;;;;3.60;3.30;;;10.90;99.90;;;;;;5013091;28;20429;-75
2022/12/26 07:34:28;;;;;;;4.73;3.60;;;10.90;99.90;;;;;;5012007;28;20446;-76
2022/12/26 07:36:57;;;;;;;3.80;3.40;;;10.90;99.90;;;;;;5011988;28;20396;-73
2022/12/26 07:39:24;;;;;;;4.17;3.47;;;10.80;99.90;;;;;;4995613;28;20427;-74
2022/12/26 07:41:59;;;;;;;3.60;3.30;;;10.80;99.90;;;;;;5011588;28;20776;-74
2022/12/26 07:44:26;;;;;;;4.47;4.00;;;10.90;99.90;;;;;;5012104;28;20447;-74
2022/12/26 07:46:53;;;;;;;3.73;3.43;;;10.90;99.90;;;;;;4995290;28;20539;-73
2022/12/26 07:49:19;;;;;;;4.00;3.60;;;10.80;99.90;;;;;;4995091;28;20428;-73
2022/12/26 07:51:48;;;;;;;5.83;3.60;;;10.90;99.90;;;;;;5011197;28;20428;-74
2022/12/26 07:54:14;;;;;;;4.40;4.00;;;10.80;99.90;;;;;;4994819;28;20448;-74
2022/12/26 07:56:43;;;;;;;4.93;4.43;;;10.80;99.90;;;;;;5011129;28;20475;-72
2022/12/26 07:59:15;;;;;;;4.57;4.17;;;10.80;99.90;;;;;;5011148;28;20485;-74
2022/12/26 08:01:44;;;;;;;3.70;3.30;;;10.90;99.90;;;;;;5011241;28;20424;-72
2022/12/26 08:04:13;;;;;;;3.60;3.10;;;10.80;99.90;;;;;;5013951;28;20533;-73
2022/12/26 08:06:41;;;;;;;4.17;3.77;;;10.80;99.90;;;;;;5015816;28;20439;-74
2022/12/26 08:09:14;;;;;;;4.67;4.27;;;10.80;99.90;;;;;;5012720;28;20432;-74
2022/12/26 08:11:43;;;;;;;4.47;3.63;;;10.80;99.90;;;;;;5015847;28;20459;-73
2022/12/26 08:14:17;;;;;;;4.73;3.87;;;10.90;99.90;;;;;;5015715;28;20436;-74
2022/12/26 08:16:44;;;;;;;4.17;3.80;;;10.80;99.90;;;;;;4998232;28;20424;-75
2022/12/26 08:19:13;;;;;;;5.03;4.10;;;10.90;99.90;;;;;;4998073;28;20819;-75
2022/12/26 08:21:43;;;;;;;5.03;4.30;;;10.80;99.90;;;;;;4998320;28;20897;-75
2022/12/26 08:24:12;;;;;;;5.00;4.20;;;10.90;99.90;;;;;;4981103;28;20449;-75
2022/12/26 08:26:40;;;;;;;5.50;4.57;;;10.80;99.90;;;;;;5008871;28;20396;-74
2022/12/26 08:29:06;;;;;;;4.70;4.07;;;10.90;99.90;;;;;;5026501;28;21014;-75
2022/12/26 08:31:34;;;;;;;5.07;4.33;;;10.80;99.90;;;;;;5003842;28;20419;-75
2022/12/26 08:34:00;;;;;;;4.60;4.20;;;10.80;99.90;;;;;;5003037;28;20521;-74
2022/12/26 08:36:28;;;;;;;3.97;3.53;;;10.80;99.90;;;;;;5012392;28;20930;-74
2022/12/26 08:38:57;;;;;;;4.10;3.63;;;10.90;99.90;;;;;;5012160;28;20445;-75
2022/12/26 08:41:26;;;;;;;4.10;3.80;;;10.90;99.90;;;;;;5011975;28;20502;-74
2022/12/26 08:43:55;;;;;;;4.90;3.47;;;10.90;99.90;;;;;;4990262;28;20476;-75
2022/12/26 08:46:24;;;;;;;4.63;4.20;;;10.90;99.90;;;;;;5002992;28;21032;-76
2022/12/26 08:48:50;;;;;;;4.70;4.20;;;10.90;99.90;;;;;;5013541;28;20412;-74
2022/12/26 08:51:22;;;;;;;3.90;3.50;;;10.90;99.90;;;;;;5012010;28;20492;-75
2022/12/26 08:53:53;;;;;;;3.90;3.50;;;10.90;99.90;;;;;;5013028;28;20439;-75
2022/12/26 08:56:23;;;;;;;4.83;4.40;;;10.90;99.90;;;;;;5013672;28;20487;-74
2022/12/26 08:58:53;;;;;;;3.50;3.17;;;10.90;99.90;;;;;;5014105;28;20412;-76
2022/12/26 09:01:25;;;;;;;4.00;3.70;;;10.80;99.90;;;;;;4996027;28;20451;-75
2022/12/26 09:03:53;;;;;;;4.90;3.57;;;10.80;99.90;;;;;;5046058;28;20486;-74
2022/12/26 09:06:22;;;;;;;3.40;3.10;;;10.90;99.90;;;;;;5033363;28;20398;-72
2022/12/26 09:08:48;;;;;;;4.00;3.60;;;10.90;99.90;;;;;;5023205;28;20833;-75
2022/12/26 09:11:19;;;;;;;3.90;3.40;;;10.80;99.90;;;;;;4990931;28;20491;-75
2022/12/26 09:13:52;;;;;;;4.30;3.90;;;10.80;99.90;;;;;;5014145;28;20448;-75
2022/12/26 09:16:27;;;;;;;4.43;4.03;;;10.80;99.90;;;;;;5013353;28;20833;-75
2022/12/26 09:18:55;;;;;;;4.33;3.67;;;10.80;99.90;;;;;;5013416;28;20417;-75
2022/12/26 09:21:22;;;;;;;4.80;2.90;;;10.80;99.90;;;;;;4997131;28;20479;-74
2022/12/26 09:23:48;;;;;;;3.50;3.13;;;10.90;99.90;;;;;;5014292;28;20448;-75
2022/12/26 09:26:18;;;;;;;4.07;3.67;;;10.90;99.90;;;;;;5026597;28;20423;-75
2022/12/26 09:28:51;;;;;;;4.60;4.03;;;10.80;99.90;;;;;;5032723;28;20454;-75
2022/12/26 09:31:19;;;;;;;4.30;3.43;;;10.80;99.90;;;;;;4999781;28;20846;-75
2022/12/26 09:33:46;;;;;;;3.60;3.07;;;10.80;99.90;;;;;;5016219;28;20441;-75
2022/12/26 09:36:23;;;;;;;3.23;2.93;;;10.80;99.90;;;;;;5021927;28;20477;-75
2022/12/26 09:38:53;;;;;;;3.80;3.30;;;10.80;99.90;;;;;;5012968;28;20981;-75
2022/12/26 09:41:58;;;;;;;3.97;3.57;;;10.80;99.90;;;;;;5013769;28;20396;-75
2022/12/26 09:44:38;;;;;;;3.37;3.07;;;10.90;99.90;;;;;;4996919;28;20936;-75
2022/12/26 09:47:13;;;;;;;3.83;3.13;;;10.80;99.90;;;;;;4996402;28;20499;-75
2022/12/26 09:50:05;;;;;;;4.00;3.27;;;10.80;99.90;;;;;;4996343;28;20495;-74
2022/12/26 09:52:34;;;;;;;4.13;3.63;;;10.80;99.90;;;;;;5008886;28;20517;-74
2022/12/26 09:55:05;;;;;;;3.17;2.87;;;10.80;99.90;;;;;;4994100;28;20402;-75
2022/12/26 09:57:54;;;;;;;3.40;3.10;;;10.80;99.90;;;;;;4993135;28;20513;-74
2022/12/26 10:00:26;;;;;;;3.47;3.17;;;10.80;99.90;;;;;;4982308;28;20444;-74
2022/12/26 10:03:01;;;;;;;3.47;3.17;;;10.80;99.90;;;;;;5013059;28;20448;-75
2022/12/26 10:06:06;;;;;;;4.10;3.10;;;10.80;99.90;;;;;;5012433;28;20407;-75
2022/12/26 10:08:48;;;;;;;4.63;2.73;;;10.80;99.90;;;;;;5007588;28;20439;-74
2022/12/26 10:11:41;;;;;;;5.30;2.70;;;10.80;99.90;;;;;;5013435;28;20440;-75
2022/12/26 10:14:44;;;;;;;4.43;2.80;;;10.80;99.90;;;;;;5007458;28;20449;-74
2022/12/26 10:17:13;;;;;;;2.37;2.17;;;10.80;99.90;;;;;;4992866;28;20421;-74
2022/12/26 10:20:05;;;;;;;2.27;2.07;;;10.80;99.90;;;;;;4993707;28;20785;-75
2022/12/26 10:22:50;;;;;;;4.23;2.50;;;10.80;99.90;;;;;;4993607;28;20868;-74
2022/12/26 10:25:52;;;;;;;2.77;2.50;;;10.80;99.90;;;;;;4992172;28;20974;-75
2022/12/26 10:28:23;;;;;;;4.27;2.53;;;10.80;99.90;;;;;;4960326;28;20419;-74
2022/12/26 10:30:51;;;;;;;3.10;2.17;;;10.80;99.90;;;;;;5013866;28;20501;-74
2022/12/26 10:33:25;;;;;;;3.17;2.70;;;10.80;99.90;;;;;;5015293;28;20456;-75
2022/12/26 10:35:51;;;;;;;3.90;2.60;;;10.80;99.90;;;;;;4999160;28;20943;-75
2022/12/26 10:38:38;;;;;;;3.70;2.60;;;10.80;99.90;;;;;;5031681;28;20900;-75
2022/12/26 10:41:22;;;;;;;3.30;2.67;;;10.80;99.90;;;;;;5031615;28;20953;-74
2022/12/26 10:43:48;;;;;;;5.37;3.17;;;10.90;99.90;;;;;;5015566;28;20463;-75
2022/12/26 10:46:26;;;;;;;4.50;2.43;;;10.90;99.90;;;;;;5031684;28;20692;-75
2022/12/26 10:48:53;;;;;;;3.30;2.57;;;10.80;99.90;;;;;;4998803;28;20418;-74
2022/12/26 10:51:19;;;;;;;5.53;2.60;;;10.90;99.90;;;;;;5032593;28;20436;-75
2022/12/26 10:53:52;;;;;;;6.63;2.50;;;10.90;99.90;;;;;;5014909;28;20429;-75
2022/12/26 10:56:20;;;;;;;2.40;1.90;;;10.90;99.90;;;;;;5031349;28;20407;-75
2022/12/26 10:58:58;;;;;;;2.83;2.17;;;10.90;99.90;;;;;;5031557;28;20504;-75
2022/12/26 11:01:27;;;;;;;3.67;2.10;;;10.90;99.90;;;;;;5032482;28;20387;-75
2022/12/26 11:03:56;;;;;;;3.13;2.10;;;10.90;99.90;;;;;;5031330;28;20517;-73
2022/12/26 11:06:26;;;;;;;3.23;2.30;;;10.90;99.90;;;;;;5031424;28;20920;-75
2022/12/26 11:08:52;;;;;;;2.70;1.97;;;10.90;99.90;;;;;;5029213;28;20966;-75
2022/12/26 11:11:44;;;;;;;6.27;2.40;;;10.90;99.90;;;;;;5014935;28;21047;-74
2022/12/26 11:14:29;;;;;;;2.50;2.00;;;11.00;99.90;;;;;;5014443;28;20452;-74
2022/12/26 11:17:03;;;;;;;3.13;2.30;;;11.00;99.90;;;;;;4998948;28;20513;-74
2022/12/26 11:19:36;;;;;;;2.73;1.60;;;10.90;99.90;;;;;;4999489;28;20809;-73
2022/12/26 11:22:29;;;;;;;4.27;2.10;;;10.90;99.90;;;;;;5010158;28;20417;-75
2022/12/26 11:25:17;;;;;;;2.83;1.73;;;10.90;99.90;;;;;;5010695;28;20768;-77
2022/12/26 11:27:49;;;;;;;2.70;1.87;;;11.00;99.90;;;;;;5008417;28;20515;-74
2022/12/26 11:30:46;;;;;;;6.43;2.70;;;10.90;99.90;;;;;;4996874;28;20973;-73
2022/12/26 11:33:23;;;;;;;3.20;1.97;;;11.00;99.90;;;;;;5010761;28;20452;-73
2022/12/26 11:36:09;;;;;;;2.13;1.50;;;11.00;99.90;;;;;;4985779;28;20950;-74
2022/12/26 11:39:02;;;;;;;2.63;1.60;;;11.00;99.90;;;;;;4999437;28;20964;-73
2022/12/26 11:41:32;;;;;;;4.60;2.10;;;11.00;99.90;;;;;;5018943;28;20427;-74
2022/12/26 11:44:12;;;;;;;3.87;2.00;;;11.00;99.90;;;;;;5015578;28;20478;-74
2022/12/26 11:46:55;;;;;;;3.50;1.50;;;11.00;99.90;;;;;;5015575;28;20440;-73
2022/12/26 11:49:32;;;;;;;2.83;1.90;;;11.00;99.90;;;;;;5001050;28;20996;-73
2022/12/26 11:52:23;;;;;;;4.37;1.77;;;11.00;99.90;;;;;;4992648;28;20454;-72
2022/12/26 11:54:50;;;;;;;7.30;1.60;;;11.00;99.90;;;;;;4961589;28;20424;-73
2022/12/26 11:57:26;;;;;;;4.07;1.73;;;11.00;99.90;;;;;;4997111;28;20401;-73
2022/12/26 12:00:17;;;;;;;2.10;1.50;;;11.00;99.90;;;;;;4999139;28;20552;-72
2022/12/26 12:02:44;;;;;;;2.87;2.40;;;11.00;99.90;;;;;;5014380;28;20468;-73
2022/12/26 12:05:27;;;;;;;2.00;1.80;;;11.00;99.90;;;;;;4997823;28;20453;-73
2022/12/26 12:08:07;;;;;;;2.60;1.57;;;11.00;99.90;;;;;;5008992;28;20510;-72
2022/12/26 12:10:51;;;;;;;2.00;1.40;;;11.00;99.90;;;;;;5012716;28;20464;-74
2022/12/26 12:13:40;;;;;;;4.80;1.90;;;11.10;99.90;;;;;;4997758;28;20540;-72
2022/12/26 12:16:11;;;;;;;2.13;1.33;;;11.00;99.90;;;;;;4997585;28;20483;-74
2022/12/26 12:19:10;;;;;;;3.20;2.00;;;11.00;99.90;;;;;;4996897;28;20436;-73
2022/12/26 12:21:44;;;;;;;2.37;1.47;;;11.10;99.90;;;;;;5016287;28;20830;-73
2022/12/26 12:24:43;;;;;;;3.00;1.47;;;11.10;99.90;;;;;;5016200;28;20814;-73
2022/12/26 12:27:27;;;;;;;3.47;1.70;;;11.00;99.90;;;;;;5016383;28;20432;-73
2022/12/26 12:30:19;;;;;;;2.33;2.13;;;11.00;99.90;;;;;;5014992;28;20511;-73
2022/12/26 12:33:15;;;;;;;2.83;1.90;;;11.10;99.90;;;;;;5015807;28;20449;-74
2022/12/26 12:36:18;;;;;;;3.60;2.10;;;11.10;99.90;;;;;;4986077;28;20938;-73
2022/12/26 12:38:56;;;;;;;2.10;1.63;;;11.10;99.90;;;;;;5010653;28;20903;-73
2022/12/26 12:41:28;;;;;;;4.77;1.90;;;11.00;99.90;;;;;;5014753;28;20404;-73
2022/12/26 12:44:15;;;;;;;2.00;1.80;;;11.10;99.90;;;;;;5015713;28;20432;-73
2022/12/26 12:46:50;;;;;;;3.70;2.30;;;11.10;99.90;;;;;;5015588;28;20443;-73
2022/12/26 12:49:44;;;;;;;3.17;1.73;;;11.10;99.90;;;;;;5014279;28;20427;-73
2022/12/26 12:52:29;;;;;;;2.00;1.80;;;11.10;99.90;;;;;;5015796;28;20445;-73
2022/12/26 12:54:58;;;;;;;2.50;1.30;;;11.10;99.90;;;;;;4998672;28;20959;-73
2022/12/26 12:57:46;;;;;;;2.30;1.60;;;11.00;99.90;;;;;;5015652;28;20476;-73
2022/12/26 13:00:23;;;;;;;2.27;1.70;;;11.10;99.90;;;;;;5008594;28;20418;-73
2022/12/26 13:03:06;;;;;;;2.10;1.60;;;11.00;99.90;;;;;;4995222;28;20453;-73
2022/12/26 13:05:56;;;;;;;1.70;1.60;;;11.00;99.90;;;;;;5001983;28;20878;-73
2022/12/26 13:08:34;;;;;;;4.93;1.90;;;11.00;99.90;;;;;;5015538;28;20959;-73
2022/12/26 13:11:09;;;;;;;5.17;1.60;;;11.00;99.90;;;;;;5014279;28;20460;-73
2022/12/26 13:14:07;;;;;;;1.67;1.20;;;11.00;99.90;;;;;;4998084;28;20445;-73
2022/12/26 13:16:44;;;;;;;3.13;1.60;;;11.00;99.90;;;;;;5003312;28;20436;-73
2022/12/26 13:19:37;;;;;;;2.80;1.53;;;11.00;99.90;;;;;;4978343;28;20436;-73
2022/12/26 13:24:22;;;;;;;1.70;1.40;;;11.00;99.90;;;;;;4995630;28;20412;-73
2022/12/26 13:25:13;;;;;;;4.03;1.40;;;11.00;99.90;;;;;;4984146;28;20957;-73
2022/12/26 13:27:40;;;;;;;3.47;1.73;;;11.00;99.90;;;;;;5012923;28;21269;-73
2022/12/26 13:30:16;;;;;;;3.30;1.60;;;11.00;99.90;;;;;;5012823;28;20864;-76
2022/12/26 13:32:43;;;;;;;2.67;1.50;;;11.00;99.90;;;;;;4993783;28;20452;-73
2022/12/26 13:35:51;;;;;;;2.23;1.50;;;10.90;99.90;;;;;;5004782;28;20436;-74
2022/12/26 13:38:19;;;;;;;3.07;1.40;;;11.00;99.90;;;;;;4954986;28;20452;-72
2022/12/26 13:43:53;;;;;;;3.87;1.80;;;10.90;99.90;;;;;;4974226;28;20437;-72
2022/12/26 13:44:01;;;;;;;3.00;1.77;;;10.90;99.90;;;;;;5012900;28;20544;-72
2022/12/26 13:46:40;;;;;;;2.97;1.83;;;10.90;99.90;;;;;;5015875;28;20448;-72
2022/12/26 13:49:38;;;;;;;2.17;1.53;;;10.90;99.90;;;;;;5012244;28;20764;-72
2022/12/26 13:52:10;;;;;;;5.80;1.87;;;10.90;99.90;;;;;;5025248;28;20448;-73
2022/12/26 13:54:51;;;;;;;3.40;1.80;;;10.90;99.90;;;;;;5014244;28;20472;-72
2022/12/26 13:57:25;;;;;;;3.33;2.20;;;10.90;99.90;;;;;;5021450;28;20451;-73
2022/12/26 14:00:16;;;;;;;3.83;1.90;;;10.90;99.90;;;;;;5012085;28;20431;-72
2022/12/26 14:03:22;;;;;;;3.70;1.80;;;10.90;99.90;;;;;;5023909;28;20462;-73
2022/12/26 14:06:09;;;;;;;2.43;1.50;;;10.90;99.90;;;;;;4993086;28;20411;-73
2022/12/26 14:09:29;;;;;;;2.97;1.60;;;10.90;99.90;;;;;;5004138;28;20818;-73
2022/12/26 14:12:15;;;;;;;3.40;2.00;;;10.90;99.90;;;;;;4994757;28;20471;-72
2022/12/26 14:15:18;;;;;;;4.20;1.70;;;10.90;99.90;;;;;;4990760;28;20487;-73
2022/12/26 14:18:14;;;;;;;3.30;1.60;;;10.90;99.90;;;;;;4987301;28;20455;-73
2022/12/26 14:21:12;;;;;;;3.87;2.23;;;10.80;99.90;;;;;;4983615;28;20436;-73
2022/12/26 14:24:11;;;;;;;5.43;2.10;;;10.80;99.90;;;;;;4992053;28;20467;-73
2022/12/26 14:26:50;;;;;;;5.03;2.33;;;10.80;99.90;;;;;;4945609;28;21154;-73
2022/12/26 14:29:48;;;;;;;4.10;1.90;;;10.80;99.90;;;;;;4966848;28;21144;-73
2022/12/26 14:32:53;;;;;;;3.77;2.33;;;10.80;99.90;;;;;;4983534;28;20568;-75
2022/12/26 14:35:43;;;;;;;7.40;3.13;;;10.80;99.90;;;;;;5008054;28;20466;-74
2022/12/26 14:38:30;;;;;;;3.00;1.90;;;10.80;99.90;;;;;;4977001;28;20441;-73
2022/12/26 14:44:28;;;;;;;7.07;2.67;;;10.80;99.90;;;;;;5003681;28;20460;-73
2022/12/26 14:47:00;;;;;;;9.27;2.80;;;10.80;99.90;;;;;;4982177;28;20512;-73
2022/12/26 14:49:30;;;;;;;3.27;2.47;;;10.70;99.90;;;;;;4991899;28;20918;-74
2022/12/26 14:52:24;;;;;;;9.00;2.90;;;10.70;99.90;;;;;;5007544;28;20424;-73
2022/12/26 14:54:54;;;;;;;4.93;3.33;;;10.70;99.90;;;;;;5040195;22;20536;-74
2022/12/26 14:57:40;;;;;;;4.30;3.03;;;10.70;99.90;;;;;;4917093;29;20677;-74
2022/12/26 15:00:17;;;;;;;7.33;3.43;;;10.70;99.90;;;;;;4906423;29;20794;-74
2022/12/26 15:03:11;;;;;;;8.40;3.77;;;10.70;99.90;;;;;;4896035;29;20445;-74
2022/12/26 15:05:40;;;;;;;11.07;3.97;;;10.70;99.90;;;;;;4924001;29;20520;-74
2022/12/26 15:08:12;;;;;;;4.07;3.30;;;10.70;99.90;;;;;;4917402;29;20445;-74
2022/12/26 15:11:17;;;;;;;9.43;4.17;;;10.70;99.90;;;;;;4930667;29;20484;-74
2022/12/26 15:14:05;;;;;;;6.80;3.43;;;10.70;99.90;;;;;;4917826;29;20537;-74
2022/12/26 15:16:39;;;;;;;4.70;3.60;;;10.70;99.90;;;;;;4927704;29;20455;-74
2022/12/26 15:19:43;;;;;;;6.47;3.37;;;10.70;99.90;;;;;;4914508;29;20773;-74
2022/12/26 15:22:17;;;;;;;4.43;3.23;;;10.70;99.90;;;;;;4915680;29;20547;-74
2022/12/26 15:24:55;;;;;;;6.93;3.00;;;10.70;99.90;;;;;;4923263;29;21006;-74
2022/12/26 15:27:49;;;;;;;3.20;2.60;;;10.70;99.90;;;;;;4934378;29;20455;-74
2022/12/26 15:30:15;;;;;;;3.30;2.90;;;10.60;99.90;;;;;;4930408;29;20984;-74
2022/12/26 15:33:01;;;;;;;6.43;2.80;;;10.70;99.90;;;;;;4917283;29;20487;-75
2022/12/26 15:35:33;;;;;;;7.83;2.93;;;10.60;99.90;;;;;;4918870;29;20510;-76
2022/12/26 15:38:16;;;;;;;2.90;2.60;;;10.60;99.90;;;;;;4893973;29;20958;-76